Time;durP1;ratioP1;P1;durP2;ratioP2;P2;SDS_P1;SDS_P2;PMS_P1;PMS_P2;Temp;Humidity;BMP_temperature;BMP_pressure;BME280_temperature;BME280_humidity;BME280_pressure;Samples;Min_cycle;Max_cycle;Signal;HPM_P1;HPM_P2
2022/11/12 00:01:47;;;;;;;6.60;3.05;;;;;;;7.48;98.16;101151.38;5044886;28;20045;-76
2022/11/12 00:04:16;;;;;;;5.47;2.70;;;;;;;7.42;98.99;101154.53;5045813;28;20103;-77
2022/11/12 00:06:47;;;;;;;5.38;3.38;;;;;;;7.36;100.00;101151.66;5045476;28;20073;-75
2022/11/12 00:09:15;;;;;;;6.15;2.72;;;;;;;7.31;100.00;101158.28;5039701;28;20052;-76
2022/11/12 00:11:44;;;;;;;5.75;2.50;;;;;;;7.24;100.00;101153.59;5045271;28;20499;-75
2022/11/12 00:14:13;;;;;;;4.57;2.67;;;;;;;7.19;100.00;101158.53;5048918;28;20049;-76
2022/11/12 00:16:41;;;;;;;6.15;3.35;;;;;;;7.20;100.00;101170.63;5046930;28;20405;-76
2022/11/12 00:19:12;;;;;;;6.60;3.17;;;;;;;7.18;100.00;101171.34;5044304;28;20562;-77
2022/11/12 00:21:41;;;;;;;6.38;3.42;;;;;;;7.16;100.00;101160.97;5048969;28;20047;-76
2022/11/12 00:24:11;;;;;;;4.95;2.58;;;;;;;7.16;100.00;101163.53;5045973;28;20052;-76
2022/11/12 00:26:40;;;;;;;8.70;3.00;;;;;;;7.13;100.00;101148.84;5048016;28;20056;-77
2022/11/12 00:29:09;;;;;;;3.92;2.63;;;;;;;7.08;100.00;101146.84;5048197;28;20048;-76
2022/11/12 00:31:37;;;;;;;4.82;2.75;;;;;;;7.07;100.00;101152.78;5052040;28;20049;-75
2022/11/12 00:34:06;;;;;;;4.43;2.40;;;;;;;7.02;100.00;101164.53;5051895;28;20049;-77
2022/11/12 00:36:35;;;;;;;4.63;2.30;;;;;;;6.98;100.00;101162.63;5048749;28;20049;-74
2022/11/12 00:39:05;;;;;;;6.05;2.95;;;;;;;6.91;100.00;101171.72;5047042;28;20049;-74
2022/11/12 00:41:35;;;;;;;7.68;2.75;;;;;;;6.88;100.00;101176.72;5048913;28;20057;-74
2022/11/12 00:44:04;;;;;;;4.80;2.67;;;;;;;6.84;100.00;101175.66;5046329;28;20049;-76
2022/11/12 00:46:32;;;;;;;5.40;2.72;;;;;;;6.83;100.00;101184.19;5045201;28;20496;-75
2022/11/12 00:49:02;;;;;;;6.10;3.38;;;;;;;6.79;100.00;101182.25;5045006;28;20068;-77
2022/11/12 00:51:30;;;;;;;5.43;3.03;;;;;;;6.80;100.00;101185.72;5043944;28;20044;-76
2022/11/12 00:53:59;;;;;;;7.40;3.17;;;;;;;6.79;100.00;101168.53;5048367;28;20052;-77
2022/11/12 00:56:30;;;;;;;4.53;3.17;;;;;;;6.76;100.00;101164.13;5045137;28;20045;-77
2022/11/12 00:59:01;;;;;;;4.90;2.97;;;;;;;6.72;100.00;101159.59;5039652;28;20136;-76
2022/11/12 01:01:29;;;;;;;5.60;3.55;;;;;;;6.69;100.00;101149.19;5046039;28;20052;-77
2022/11/12 01:04:00;;;;;;;6.90;3.78;;;;;;;6.68;100.00;101147.38;5048695;28;20392;-75
2022/11/12 01:06:30;;;;;;;5.65;3.15;;;;;;;6.63;100.00;101148.84;5046831;28;20061;-74
2022/11/12 01:08:59;;;;;;;6.25;2.90;;;;;;;6.61;100.00;101145.31;5039436;28;20049;-76
2022/11/12 01:11:29;;;;;;;9.55;3.22;;;;;;;6.60;100.00;101148.69;5041488;28;20059;-75
2022/11/12 01:14:01;;;;;;;7.40;2.97;;;;;;;6.64;100.00;101155.75;5046968;28;20056;-75
2022/11/12 01:16:33;;;;;;;4.93;2.97;;;;;;;6.66;100.00;101151.56;5052180;28;20755;-76
2022/11/12 01:19:03;;;;;;;5.10;2.38;;;;;;;6.66;100.00;101152.44;5052821;28;20136;-76
2022/11/12 01:21:33;;;;;;;5.78;4.07;;;;;;;6.68;100.00;101168.84;5046499;28;20044;-75
2022/11/12 01:24:02;;;;;;;5.03;2.60;;;;;;;6.64;100.00;101160.88;5055672;28;20264;-74
2022/11/12 01:26:34;;;;;;;5.97;3.05;;;;;;;6.63;100.00;101161.72;5042847;28;20052;-76
2022/11/12 01:29:05;;;;;;;11.55;3.75;;;;;;;6.60;100.00;101154.72;5043830;28;20089;-76
2022/11/12 01:31:36;;;;;;;5.07;2.90;;;;;;;6.59;100.00;101159.78;5048554;28;20163;-76
2022/11/12 01:34:07;;;;;;;4.60;2.78;;;;;;;6.58;100.00;101158.91;5047106;28;20154;-77
2022/11/12 01:36:42;;;;;;;3.67;2.78;;;;;;;6.57;100.00;101158.81;5043239;28;20347;-76
2022/11/12 01:39:11;;;;;;;5.43;2.45;;;;;;;6.59;100.00;101164.91;5047200;28;20435;-78
2022/11/12 01:41:41;;;;;;;8.63;3.33;;;;;;;6.59;100.00;101159.78;5043925;28;20049;-76
2022/11/12 01:44:18;;;;;;;6.18;2.50;;;;;;;6.63;100.00;101172.00;5047812;28;20074;-78
2022/11/12 01:46:58;;;;;;;4.22;2.72;;;;;;;6.61;100.00;101165.88;5055867;28;20059;-87
2022/11/12 01:49:32;;;;;;;6.63;2.95;;;;;;;6.61;100.00;101169.31;5065003;28;20036;-86
2022/11/12 01:52:09;;;;;;;5.53;3.25;;;;;;;6.61;100.00;101171.03;5058980;28;20049;-88
2022/11/12 01:54:39;;;;;;;7.85;3.15;;;;;;;6.58;100.00;101161.47;5059008;28;20049;-83
2022/11/12 01:57:10;;;;;;;4.30;2.95;;;;;;;6.57;100.00;101166.53;5060361;28;20048;-84
2022/11/12 01:59:44;;;;;;;4.68;2.55;;;;;;;6.55;100.00;101165.56;5051922;28;20055;-79
2022/11/12 02:02:13;;;;;;;4.22;2.83;;;;;;;6.50;100.00;101166.22;5051475;28;20057;-75
2022/11/12 02:04:43;;;;;;;6.88;2.90;;;;;;;6.50;100.00;101163.66;5048613;28;20037;-81
2022/11/12 02:07:12;;;;;;;4.78;2.95;;;;;;;6.52;100.00;101163.72;5048927;28;20684;-82
2022/11/12 02:09:43;;;;;;;6.65;3.20;;;;;;;6.52;100.00;101160.25;5046876;28;20110;-82
2022/11/12 02:13:56;;;;;;;6.93;3.13;;;;;;;6.50;100.00;101148.22;5052036;28;20131;-81
2022/11/12 02:15:05;;;;;;;4.00;2.30;;;;;;;6.49;100.00;101151.59;5047812;28;20053;-80
2022/11/12 02:17:34;;;;;;;3.88;2.63;;;;;;;6.49;100.00;101146.44;5046334;28;20045;-82
2022/11/12 02:20:03;;;;;;;5.03;2.53;;;;;;;6.46;100.00;101146.28;5048717;28;20049;-77
2022/11/12 02:22:36;;;;;;;9.40;3.28;;;;;;;6.43;100.00;101146.09;5049339;28;20648;-77
2022/11/12 02:25:05;;;;;;;6.57;2.92;;;;;;;6.41;100.00;101137.44;5055511;28;20046;-86
2022/11/12 02:27:35;;;;;;;4.93;3.00;;;;;;;6.39;100.00;101144.22;5049063;28;20052;-73
2022/11/12 02:30:03;;;;;;;6.63;3.28;;;;;;;6.38;100.00;101138.97;5049329;28;20064;-84
2022/11/12 02:32:32;;;;;;;5.47;2.63;;;;;;;6.37;100.00;101148.38;5050054;28;20053;-84
2022/11/12 02:35:04;;;;;;;6.57;3.42;;;;;;;6.35;100.00;101152.56;5048615;28;20045;-84
2022/11/12 02:37:34;;;;;;;5.33;3.20;;;;;;;6.33;100.00;101154.16;5045602;28;20128;-83
2022/11/12 02:40:03;;;;;;;5.90;2.80;;;;;;;6.27;100.00;101140.97;5050644;28;20373;-84
2022/11/12 02:42:32;;;;;;;4.75;2.75;;;;;;;6.29;100.00;101165.06;5049866;28;20041;-83
2022/11/12 02:45:02;;;;;;;4.40;2.60;;;;;;;6.30;100.00;101164.28;5054042;28;20052;-85
2022/11/12 02:47:31;;;;;;;4.97;2.55;;;;;;;6.30;100.00;101164.28;5048309;28;20190;-84
2022/11/12 02:50:00;;;;;;;8.57;2.65;;;;;;;6.29;100.00;101168.50;5048575;28;20139;-80
2022/11/12 02:52:28;;;;;;;6.28;2.78;;;;;;;6.30;100.00;101172.00;5050475;28;20045;-80
2022/11/12 02:54:59;;;;;;;5.30;2.60;;;;;;;6.28;100.00;101168.47;5051652;28;20045;-81
2022/11/12 02:57:30;;;;;;;5.22;2.88;;;;;;;6.27;100.00;101169.25;5054552;28;20049;-83
2022/11/12 02:59:58;;;;;;;4.07;2.50;;;;;;;6.28;100.00;101165.88;5053204;28;21067;-83
2022/11/12 03:02:27;;;;;;;7.72;2.97;;;;;;;6.26;100.00;101157.22;5051579;28;20041;-81
2022/11/12 03:04:57;;;;;;;3.70;3.10;;;;;;;6.27;100.00;101144.41;5048358;28;20249;-83
2022/11/12 03:07:28;;;;;;;5.25;3.30;;;;;;;6.25;100.00;101135.78;5053538;28;20056;-86
2022/11/12 03:09:58;;;;;;;11.65;5.45;;;;;;;6.23;100.00;101136.47;5050909;28;20567;-82
2022/11/12 03:12:27;;;;;;;3.40;2.15;;;;;;;6.22;100.00;101150.13;5051660;28;20037;-80
2022/11/12 03:14:56;;;;;;;6.70;2.85;;;;;;;6.21;100.00;101153.53;5040686;28;20059;-87
2022/11/12 03:17:24;;;;;;;4.10;1.95;;;;;;;6.19;100.00;101149.97;5049815;28;20049;-85
2022/11/12 03:19:56;;;;;;;4.95;2.80;;;;;;;6.18;100.00;101141.34;5055014;28;20083;-84
2022/11/12 03:22:25;;;;;;;4.28;2.38;;;;;;;6.16;100.00;101149.78;5053837;28;20048;-82
2022/11/12 03:24:53;;;;;;;4.22;2.25;;;;;;;6.13;100.00;101155.66;5055376;28;20091;-83
2022/11/12 03:27:24;;;;;;;4.15;2.83;;;;;;;6.14;100.00;101156.53;5059238;28;20076;-84
2022/11/12 03:29:55;;;;;;;4.28;2.42;;;;;;;6.10;100.00;101157.19;5057428;28;20136;-82
2022/11/12 03:32:26;;;;;;;4.40;2.50;;;;;;;6.16;100.00;101170.34;5060085;28;20045;-86
2022/11/12 03:34:55;;;;;;;5.68;2.60;;;;;;;6.19;100.00;101158.56;5058682;28;20554;-85
2022/11/12 03:37:24;;;;;;;4.40;2.40;;;;;;;6.18;100.00;101154.22;5053197;28;20083;-82
2022/11/12 03:39:53;;;;;;;6.75;2.75;;;;;;;6.22;100.00;101165.53;5049958;28;20053;-81
2022/11/12 03:42:23;;;;;;;4.50;2.72;;;;;;;6.25;100.00;101152.84;5053648;28;20071;-81
2022/11/12 03:44:52;;;;;;;6.40;2.38;;;;;;;6.24;100.00;101153.66;5053913;28;20059;-81
2022/11/12 03:47:21;;;;;;;4.68;2.67;;;;;;;6.28;100.00;101153.03;5051510;28;20067;-85
2022/11/12 03:49:49;;;;;;;2.72;2.22;;;;;;;6.34;100.00;101158.47;5052735;28;20048;-80
2022/11/12 03:52:18;;;;;;;3.95;2.20;;;;;;;6.37;100.00;101155.19;5055738;28;20076;-83
2022/11/12 03:54:47;;;;;;;4.80;2.78;;;;;;;6.38;97.85;101144.13;5045360;28;20106;-83
2022/11/12 03:57:16;;;;;;;4.72;2.92;;;;;;;6.40;97.89;101148.53;5047764;28;20087;-81
2022/11/12 03:59:46;;;;;;;6.25;2.38;;;;;;;6.43;97.94;101151.25;5050199;28;20053;-82
2022/11/12 04:02:18;;;;;;;5.20;2.70;;;;;;;6.41;98.14;101150.28;5052298;28;20520;-82
2022/11/12 04:10:18;;;;;;;5.43;2.22;;;;;;;6.44;95.66;101158.19;5042530;28;20087;-81
2022/11/12 04:15:37;;;;;;;5.32;2.58;;;;;;;6.50;93.69;101162.75;5054568;28;20110;-86
2022/11/12 04:23:37;;;;;;;4.03;2.22;;;;;;;6.54;91.31;101168.94;5048237;28;20067;-80
2022/11/12 04:31:45;;;;;;;3.35;2.15;;;;;;;6.47;89.23;101157.44;5053860;28;20445;-80
2022/11/12 04:34:29;;;;;;;5.57;2.42;;;;;;;6.46;88.75;101159.16;5054602;28;20064;-81
2022/11/12 04:36:58;;;;;;;5.00;1.95;;;;;;;6.54;86.58;101168.94;5050419;28;20107;-83
2022/11/12 04:39:26;;;;;;;5.93;2.50;;;;;;;6.49;86.47;101167.00;5045889;28;20049;-82
2022/11/12 04:47:29;;;;;;;5.25;2.45;;;;;;;6.46;84.74;101189.13;5047573;28;20094;-81
2022/11/12 04:49:59;;;;;;;5.93;2.45;;;;;;;6.44;84.78;101194.16;5045027;28;20138;-77
2022/11/12 04:52:28;;;;;;;3.33;2.00;;;;;;;6.42;85.45;101200.03;5043555;28;20048;-79
2022/11/12 04:54:57;;;;;;;3.92;2.65;;;;;;;6.43;87.34;101202.66;5044825;28;20045;-77
2022/11/12 04:57:26;;;;;;;7.55;3.58;;;;;;;6.39;89.55;101203.31;5047606;28;20045;-79
2022/11/12 04:59:54;;;;;;;2.58;1.75;;;;;;;6.37;88.36;101202.34;5043251;28;20064;-78
2022/11/12 05:02:23;;;;;;;3.25;1.98;;;;;;;6.36;85.70;101200.56;5045616;28;20142;-79
2022/11/12 05:04:54;;;;;;;4.40;2.05;;;;;;;6.37;83.49;101202.34;5044624;28;20067;-80
2022/11/12 05:07:22;;;;;;;4.13;2.03;;;;;;;6.33;84.90;101194.41;5038936;28;20067;-80
2022/11/12 05:09:51;;;;;;;2.70;1.63;;;;;;;6.36;83.92;101199.69;5029097;28;20053;-78
2022/11/12 05:12:20;;;;;;;4.82;1.88;;;;;;;6.38;84.43;101198.09;5035473;28;20088;-74
2022/11/12 05:14:49;;;;;;;6.00;2.53;;;;;;;6.38;85.19;101198.97;5027844;28;20056;-76
2022/11/12 05:17:17;;;;;;;3.22;2.30;;;;;;;6.35;82.95;101198.81;5034202;28;20053;-79
2022/11/12 05:19:51;;;;;;;4.25;2.05;;;;;;;6.33;81.74;101213.28;5029536;28;20073;-75
2022/11/12 05:22:21;;;;;;;4.93;2.63;;;;;;;6.33;82.37;101209.81;5031075;28;20777;-78
2022/11/12 05:24:50;;;;;;;4.10;2.10;;;;;;;6.29;82.32;101213.91;5032242;28;20045;-80
2022/11/12 05:27:21;;;;;;;3.80;2.10;;;;;;;6.28;85.18;101227.56;5034222;28;20050;-83
2022/11/12 05:29:53;;;;;;;6.57;2.72;;;;;;;6.27;85.76;101210.34;5034228;28;20052;-77
2022/11/12 05:32:22;;;;;;;3.15;2.33;;;;;;;6.23;86.33;101216.13;5031925;28;20514;-85
2022/11/12 05:34:50;;;;;;;5.18;2.10;;;;;;;6.23;86.24;101223.84;5028735;28;20049;-78
2022/11/12 05:37:21;;;;;;;8.85;2.83;;;;;;;6.22;85.68;101222.97;5030745;28;20136;-76
2022/11/12 05:39:53;;;;;;;3.78;1.92;;;;;;;6.23;85.72;101236.69;5036648;28;20041;-83
2022/11/12 05:42:21;;;;;;;5.55;2.10;;;;;;;6.22;86.38;101224.66;5030543;28;20053;-76
2022/11/12 05:44:50;;;;;;;4.20;2.47;;;;;;;6.23;87.11;101234.13;5025676;28;20062;-76
2022/11/12 05:47:19;;;;;;;3.40;2.35;;;;;;;6.22;86.18;101237.50;5028430;28;20052;-77
2022/11/12 05:49:47;;;;;;;4.93;2.55;;;;;;;6.20;86.94;101239.97;5033440;28;20052;-78
2022/11/12 05:52:16;;;;;;;4.50;2.63;;;;;;;6.18;85.37;101233.88;5027452;28;20046;-75
2022/11/12 05:54:46;;;;;;;4.05;2.40;;;;;;;6.18;86.31;101243.25;5027479;28;20526;-77
2022/11/12 05:57:15;;;;;;;5.80;2.67;;;;;;;6.16;86.27;101237.16;5028197;28;20124;-81
2022/11/12 05:59:44;;;;;;;4.68;2.58;;;;;;;6.14;86.73;101234.53;5037184;28;20049;-83
2022/11/12 06:02:12;;;;;;;9.80;2.42;;;;;;;6.14;86.82;101243.88;5032289;28;20136;-78
2022/11/12 06:04:41;;;;;;;4.47;2.30;;;;;;;6.13;87.46;101232.72;5027442;28;20053;-78
2022/11/12 06:07:10;;;;;;;7.60;2.95;;;;;;;6.13;87.95;101237.00;5038325;28;20059;-79
2022/11/12 06:09:38;;;;;;;6.45;2.50;;;;;;;6.16;86.27;101234.59;5048246;28;20043;-79
2022/11/12 06:12:09;;;;;;;3.90;2.08;;;;;;;6.15;85.66;101240.53;5052473;28;20048;-76
2022/11/12 06:14:41;;;;;;;9.63;3.53;;;;;;;6.17;86.66;101241.50;5052746;28;20057;-76
2022/11/12 06:17:10;;;;;;;4.17;2.50;;;;;;;6.16;86.82;101242.28;5051154;28;20135;-79
2022/11/12 06:19:38;;;;;;;5.25;2.40;;;;;;;6.14;85.76;101237.09;5049314;28;20068;-77
2022/11/12 06:22:07;;;;;;;3.45;2.15;;;;;;;6.14;85.30;101241.31;5052586;28;20136;-76
2022/11/12 06:24:36;;;;;;;6.47;3.00;;;;;;;6.12;84.22;101245.50;5045319;28;20060;-74
2022/11/12 06:27:04;;;;;;;4.45;2.50;;;;;;;6.10;84.64;101242.84;5049118;28;20049;-76
2022/11/12 06:29:35;;;;;;;6.60;2.13;;;;;;;6.13;83.56;101247.28;5055778;28;20525;-76
2022/11/12 06:32:03;;;;;;;5.03;2.15;;;;;;;6.15;83.86;101250.81;5052699;28;20055;-79
2022/11/12 06:34:32;;;;;;;4.03;2.17;;;;;;;6.13;83.45;101247.28;5049681;28;20053;-76
2022/11/12 06:37:01;;;;;;;3.50;1.90;;;;;;;6.20;83.38;101259.66;5047840;28;20057;-75
2022/11/12 06:39:32;;;;;;;6.13;2.72;;;;;;;6.21;84.70;101264.00;5048845;28;20406;-76
2022/11/12 06:42:02;;;;;;;4.22;2.17;;;;;;;6.23;83.35;101257.25;5047398;28;20049;-81
2022/11/12 06:44:30;;;;;;;5.10;2.83;;;;;;;6.26;83.01;101260.00;5048509;28;20607;-84
2022/11/12 06:47:00;;;;;;;4.35;2.15;;;;;;;6.28;82.79;101264.41;5054357;28;20049;-78
2022/11/12 06:49:29;;;;;;;3.58;1.83;;;;;;;6.28;82.23;101263.53;5049991;28;20044;-77
2022/11/12 06:51:58;;;;;;;4.00;1.95;;;;;;;6.33;81.35;101262.09;5046840;28;20498;-75
2022/11/12 06:54:26;;;;;;;3.97;2.30;;;;;;;6.35;80.07;101260.50;5048335;28;20078;-80
2022/11/12 06:56:55;;;;;;;4.50;2.30;;;;;;;6.37;79.16;101264.03;5049177;28;20099;-77
2022/11/12 06:59:24;;;;;;;3.42;1.45;;;;;;;6.42;79.47;101272.88;5049321;28;20056;-80
2022/11/12 07:01:53;;;;;;;3.50;1.98;;;;;;;6.43;79.17;101272.06;5046882;28;20052;-79
2022/11/12 07:04:31;;;;;;;3.45;2.03;;;;;;;6.42;80.19;101256.59;5045591;28;20047;-80
2022/11/12 07:07:00;;;;;;;3.55;2.03;;;;;;;6.44;80.81;101265.25;5048379;28;20092;-78
2022/11/12 07:09:30;;;;;;;2.47;1.98;;;;;;;6.42;80.03;101272.88;5047027;28;20734;-78
2022/11/12 07:11:59;;;;;;;4.28;1.90;;;;;;;6.42;81.19;101278.03;5046294;28;20049;-77
2022/11/12 07:14:28;;;;;;;2.67;1.27;;;;;;;6.37;83.60;101276.91;5046247;28;20050;-78
2022/11/12 07:17:03;;;;;;;5.00;2.28;;;;;;;6.33;82.93;101277.53;5051109;28;20045;-81
2022/11/12 07:19:36;;;;;;;4.07;1.90;;;;;;;6.29;83.68;101281.59;5047955;28;20128;-80
2022/11/12 07:22:04;;;;;;;6.70;2.08;;;;;;;6.28;83.96;101276.38;5051804;28;20067;-80
2022/11/12 07:24:33;;;;;;;3.67;2.55;;;;;;;6.28;82.99;101278.97;5056618;28;20048;-78
2022/11/12 07:27:02;;;;;;;6.15;2.38;;;;;;;6.30;81.78;101282.50;5045046;28;20533;-78
2022/11/12 07:29:32;;;;;;;7.25;2.33;;;;;;;6.32;83.28;101283.44;5052251;28;20045;-78
2022/11/12 07:32:01;;;;;;;4.43;2.22;;;;;;;6.33;81.99;101287.81;5051919;28;20048;-78
2022/11/12 07:34:30;;;;;;;4.57;2.10;;;;;;;6.33;82.09;101286.94;5051425;28;20052;-78
2022/11/12 07:37:00;;;;;;;4.57;2.08;;;;;;;6.35;81.13;101283.63;5049691;28;20068;-80
2022/11/12 07:39:29;;;;;;;7.18;1.70;;;;;;;6.33;80.60;101294.63;5044427;28;20549;-79
2022/11/12 07:41:57;;;;;;;5.07;2.35;;;;;;;6.34;81.61;101298.97;5042974;28;20051;-79
2022/11/12 07:44:29;;;;;;;4.45;2.40;;;;;;;6.34;80.48;101298.97;5046011;28;20063;-79
2022/11/12 07:46:57;;;;;;;3.33;2.35;;;;;;;6.31;81.37;101306.50;5043301;28;20547;-79
2022/11/12 07:49:26;;;;;;;4.38;2.50;;;;;;;6.29;81.81;101315.00;5032857;28;20049;-77
2022/11/12 07:51:55;;;;;;;5.45;2.00;;;;;;;6.29;81.74;101311.56;5043365;28;20041;-77
2022/11/12 07:54:25;;;;;;;4.43;2.38;;;;;;;6.29;81.98;101311.56;5047689;28;20056;-78
2022/11/12 07:56:54;;;;;;;3.05;1.88;;;;;;;6.28;81.31;101308.09;5047145;28;20059;-79
2022/11/12 07:59:22;;;;;;;4.20;2.53;;;;;;;6.27;81.74;101318.28;5043163;28;20052;-77
2022/11/12 08:01:51;;;;;;;3.42;2.33;;;;;;;6.27;82.11;101320.88;5047676;28;20051;-78
2022/11/12 08:04:19;;;;;;;3.83;2.22;;;;;;;6.22;82.73;101324.88;5045107;28;20052;-79
2022/11/12 08:06:48;;;;;;;3.33;1.42;;;;;;;6.20;82.74;101326.47;5046082;28;20063;-78
2022/11/12 08:09:17;;;;;;;5.70;2.35;;;;;;;6.19;82.56;101324.72;5048300;28;20071;-78
2022/11/12 08:11:47;;;;;;;7.57;2.40;;;;;;;6.15;84.01;101323.63;5054637;28;20100;-80
2022/11/12 08:14:16;;;;;;;4.00;2.17;;;;;;;6.16;82.56;101311.66;5051246;28;20053;-82
2022/11/12 08:16:45;;;;;;;3.97;2.75;;;;;;;6.21;80.54;101317.97;5044923;28;20043;-79
2022/11/12 08:19:16;;;;;;;4.43;2.50;;;;;;;6.22;80.58;101312.00;5043476;28;20097;-78
2022/11/12 08:21:45;;;;;;;3.42;1.90;;;;;;;6.20;79.81;101306.78;5043136;28;20052;-78
2022/11/12 08:24:13;;;;;;;3.70;1.90;;;;;;;6.22;79.68;101314.59;5041987;28;20491;-79
2022/11/12 08:26:42;;;;;;;6.40;2.67;;;;;;;6.22;77.88;101315.47;5048812;28;20044;-79
2022/11/12 08:29:15;;;;;;;3.88;1.83;;;;;;;6.22;79.82;101309.44;5049873;28;20048;-79
2022/11/12 08:31:43;;;;;;;2.97;2.17;;;;;;;6.24;78.32;101313.00;5049476;28;20045;-79
2022/11/12 08:34:12;;;;;;;4.15;2.10;;;;;;;6.25;79.92;101317.31;5051187;28;20074;-79
2022/11/12 08:36:41;;;;;;;2.63;2.08;;;;;;;6.26;80.99;101316.53;5049468;28;20044;-78
2022/11/12 08:39:10;;;;;;;5.03;1.95;;;;;;;6.25;80.09;101330.16;5048327;28;20045;-77
2022/11/12 08:41:38;;;;;;;5.38;2.45;;;;;;;6.25;83.06;101335.31;5050264;28;20073;-77
2022/11/12 08:44:07;;;;;;;4.45;2.33;;;;;;;6.22;83.94;101335.16;5050633;28;20136;-78
2022/11/12 08:46:37;;;;;;;4.72;2.50;;;;;;;6.19;83.13;101334.97;5044129;28;20059;-78
2022/11/12 08:49:06;;;;;;;6.93;2.88;;;;;;;6.19;83.38;101334.97;5042209;28;20049;-78
2022/11/12 08:51:40;;;;;;;4.97;2.75;;;;;;;6.21;83.64;101341.09;5044741;28;20041;-77
2022/11/12 08:54:09;;;;;;;6.80;2.42;;;;;;;6.24;83.82;101346.41;5044488;28;20044;-79
2022/11/12 08:56:38;;;;;;;4.90;2.30;;;;;;;6.25;83.86;101351.63;5041444;28;20098;-80
2022/11/12 08:59:07;;;;;;;4.60;3.03;;;;;;;6.24;82.41;101337.00;5045810;28;20037;-78
2022/11/12 09:01:41;;;;;;;6.15;2.90;;;;;;;6.25;83.40;101340.44;5044137;28;20052;-79
2022/11/12 09:04:10;;;;;;;6.07;2.30;;;;;;;6.25;82.47;101343.00;5043540;28;20052;-78
2022/11/12 09:06:39;;;;;;;4.45;2.55;;;;;;;6.25;83.11;101346.50;5043222;28;20682;-78
2022/11/12 09:09:07;;;;;;;3.75;2.35;;;;;;;6.24;82.81;101343.81;5046031;28;20051;-77
2022/11/12 09:11:36;;;;;;;7.38;2.53;;;;;;;6.26;83.92;101348.25;5045982;28;20501;-79
2022/11/12 09:14:07;;;;;;;4.82;2.78;;;;;;;6.29;85.47;101348.41;5040856;28;20061;-79
2022/11/12 09:16:37;;;;;;;6.07;2.38;;;;;;;6.32;87.32;101350.28;5045139;28;20095;-79
2022/11/12 09:19:06;;;;;;;4.80;2.22;;;;;;;6.33;87.74;101359.75;5046498;28;20041;-79
2022/11/12 09:21:34;;;;;;;5.63;2.67;;;;;;;6.33;88.45;101349.47;5045285;28;20083;-80
2022/11/12 09:24:03;;;;;;;4.88;2.00;;;;;;;6.32;87.02;101355.41;5047950;28;20060;-79
2022/11/12 09:26:32;;;;;;;5.57;2.65;;;;;;;6.33;87.61;101354.63;5044998;28;20048;-79
2022/11/12 09:29:00;;;;;;;4.13;2.17;;;;;;;6.34;86.52;101356.38;5047605;28;20060;-80
2022/11/12 09:31:29;;;;;;;4.53;2.35;;;;;;;6.37;87.44;101363.38;5046312;28;20045;-79
2022/11/12 09:33:59;;;;;;;4.30;2.33;;;;;;;6.37;85.94;101360.81;5049874;28;20516;-80
2022/11/12 09:36:30;;;;;;;3.17;2.33;;;;;;;6.37;84.93;101355.66;5049358;28;20086;-78
2022/11/12 09:38:59;;;;;;;4.03;2.47;;;;;;;6.40;87.51;101364.44;5055743;28;20124;-80
2022/11/12 09:41:35;;;;;;;4.75;2.53;;;;;;;6.40;86.39;101364.44;5050632;28;20049;-80
2022/11/12 09:44:09;;;;;;;3.15;2.13;;;;;;;6.41;87.14;101362.75;5050432;28;20080;-79
2022/11/12 09:46:44;;;;;;;5.47;2.95;;;;;;;6.38;86.05;101363.47;5049565;28;20056;-80
2022/11/12 09:49:19;;;;;;;5.78;2.55;;;;;;;6.37;88.74;101364.28;5051090;28;20041;-80
2022/11/12 09:51:52;;;;;;;5.22;2.38;;;;;;;6.37;88.60;101354.00;5048834;28;20054;-80
2022/11/12 09:54:24;;;;;;;4.18;2.33;;;;;;;6.37;88.54;101356.56;5049001;28;20060;-79
2022/11/12 09:56:54;;;;;;;5.10;2.50;;;;;;;6.39;89.01;101359.22;5051262;28;20485;-80
2022/11/12 09:59:24;;;;;;;3.20;2.05;;;;;;;6.39;90.23;101354.97;5053175;28;20806;-81
2022/11/12 10:02:15;;;;;;;3.35;2.38;;;;;;;6.36;89.39;101359.06;5051872;28;20041;-79
2022/11/12 10:04:58;;;;;;;4.30;2.65;;;;;;;6.32;89.21;101349.38;5048304;28;20049;-81
2022/11/12 10:07:40;;;;;;;5.05;2.55;;;;;;;6.37;87.94;101355.66;5052505;28;20063;-79
2022/11/12 10:10:16;;;;;;;6.72;2.72;;;;;;;6.26;87.03;101350.81;5051359;28;20059;-78
2022/11/12 10:12:56;;;;;;;6.13;2.70;;;;;;;6.21;87.33;101359.09;5049317;28;20049;-79
2022/11/12 10:19:04;;;;;;;3.90;2.42;;;;;;;6.08;87.14;101352.34;5055880;28;20095;-79
2022/11/12 10:21:40;;;;;;;8.32;2.90;;;;;;;6.04;88.22;101366.69;5056499;28;20048;-78
2022/11/12 10:24:12;;;;;;;3.53;2.65;;;;;;;5.98;88.29;101368.94;5054690;28;20486;-78
2022/11/12 10:26:41;;;;;;;5.20;2.58;;;;;;;5.99;89.98;101377.50;5055621;28;20128;-81
2022/11/12 10:29:29;;;;;;;4.18;2.33;;;;;;;5.96;90.82;101367.94;5051288;28;20071;-79
2022/11/12 10:31:59;;;;;;;5.57;2.83;;;;;;;5.99;90.80;101373.25;5050989;28;20076;-78
2022/11/12 10:34:28;;;;;;;5.10;2.30;;;;;;;5.97;90.07;101369.72;5052688;28;20159;-78
2022/11/12 10:37:03;;;;;;;6.05;2.45;;;;;;;5.99;90.53;101375.81;5055756;28;20041;-79
2022/11/12 10:39:41;;;;;;;4.75;2.40;;;;;;;5.96;89.89;101375.66;5053958;28;20104;-80
2022/11/12 10:42:12;;;;;;;3.40;1.92;;;;;;;5.98;89.51;101371.50;5051308;28;20130;-80
2022/11/12 10:44:42;;;;;;;5.93;2.65;;;;;;;5.96;88.23;101367.94;5047306;28;20049;-79
2022/11/12 10:47:27;;;;;;;5.20;2.80;;;;;;;6.01;89.35;101366.53;5048565;28;20495;-81
2022/11/12 10:50:21;;;;;;;8.00;2.85;;;;;;;6.03;89.81;101375.22;5046389;28;20041;-80
2022/11/12 10:52:57;;;;;;;;;;;;;;;6.04;89.43;101373.53;5050603;28;20037;-80
2022/11/12 10:55:27;;;;;;;3.95;2.63;;;;;;;6.05;89.48;101368.47;5054198;28;19920;-79
2022/11/12 10:58:18;;;;;;;4.40;2.60;;;;;;;6.06;88.56;101369.34;5049029;28;20937;-79
2022/11/12 11:01:02;;;;;;;5.00;2.85;;;;;;;6.09;87.76;101387.50;5047068;28;20570;-80
2022/11/12 11:03:34;;;;;;;4.18;2.50;;;;;;;6.07;88.87;101382.31;5050910;28;20072;-81
2022/11/12 11:06:06;;;;;;;2.72;2.20;;;;;;;6.07;91.31;101386.56;5046335;28;20041;-79
2022/11/12 11:08:39;;;;;;;5.88;2.58;;;;;;;6.05;92.00;101380.44;5047099;28;20055;-81
2022/11/12 11:11:26;;;;;;;3.90;2.53;;;;;;;6.03;90.45;101388.06;5046164;28;20060;-82
2022/11/12 11:13:58;;;;;;;4.90;2.22;;;;;;;6.03;91.77;101390.63;5045915;28;20052;-81
2022/11/12 11:16:28;;;;;;;5.37;2.53;;;;;;;6.03;91.98;101385.50;5048486;28;20056;-80
2022/11/12 11:19:03;;;;;;;8.25;2.90;;;;;;;6.06;90.28;101397.63;5050791;28;20045;-81
2022/11/12 11:21:47;;;;;;;4.55;3.00;;;;;;;6.07;90.20;101386.56;5048804;28;20052;-83
2022/11/12 11:24:35;;;;;;;5.45;2.97;;;;;;;6.04;89.16;101387.25;5045642;28;20052;-82
2022/11/12 11:27:08;;;;;;;4.30;2.58;;;;;;;6.12;88.43;101400.56;5050609;28;20049;-81
2022/11/12 11:29:47;;;;;;;;;;;;;;;6.14;88.66;101398.06;5054079;28;20049;-81
2022/11/12 11:32:37;;;;;;;6.03;2.45;;;;;;;6.15;87.91;101397.28;5053330;28;19925;-81
2022/11/12 11:35:26;;;;;;;5.15;2.78;;;;;;;6.13;86.38;101391.16;5053630;28;20040;-81
2022/11/12 11:38:15;;;;;;;4.22;2.88;;;;;;;6.09;85.50;101395.22;5042863;28;20099;-80
2022/11/12 11:40:58;;;;;;;4.07;2.65;;;;;;;6.08;85.17;101396.03;5045070;28;20045;-82
2022/11/12 11:43:49;;;;;;;4.97;2.95;;;;;;;6.06;85.09;101401.06;5048448;28;20072;-83
2022/11/12 11:46:29;;;;;;;5.32;2.78;;;;;;;6.01;85.41;101394.78;5047535;28;20048;-82
2022/11/12 11:49:19;;;;;;;6.45;3.53;;;;;;;6.02;85.30;101401.69;5050291;28;20060;-82
2022/11/12 11:51:54;;;;;;;4.38;2.72;;;;;;;5.98;85.47;101404.88;5047946;28;20044;-80
2022/11/12 11:54:52;;;;;;;6.57;3.97;;;;;;;5.99;85.57;101413.47;5049353;28;20376;-82
2022/11/12 11:57:28;;;;;;;5.50;2.97;;;;;;;5.96;86.18;101414.19;5057003;28;20044;-82
2022/11/12 12:00:11;;;;;;;6.13;2.80;;;;;;;5.94;86.51;101417.44;5050046;28;20397;-81
2022/11/12 12:03:06;;;;;;;5.95;2.75;;;;;;;5.95;87.15;101414.09;5045154;28;20049;-82
2022/11/12 12:05:43;;;;;;;4.80;2.47;;;;;;;5.92;85.72;101412.19;5050756;28;20080;-82
2022/11/12 12:08:30;;;;;;;5.03;2.90;;;;;;;5.96;86.91;101419.31;5055875;28;20049;-81
2022/11/12 12:11:08;;;;;;;4.65;2.63;;;;;;;5.95;88.01;101422.66;5043616;28;20041;-83
2022/11/12 12:13:52;;;;;;;6.10;2.97;;;;;;;5.95;87.16;101422.66;5045518;28;20053;-81
2022/11/12 12:16:35;;;;;;;5.00;2.60;;;;;;;5.95;86.39;101422.66;5044091;28;20049;-81
2022/11/12 12:19:12;;;;;;;4.10;2.65;;;;;;;5.95;87.74;101432.94;5046272;28;20052;-82
2022/11/12 12:21:45;;;;;;;4.05;2.42;;;;;;;5.93;89.16;101437.06;5049001;28;20059;-81